Bray, Oklahoma
Current Conditions -  °F | °C
As of 3:35 PM on Friday 24 Oct 2014 (Local Time) from KDUC Reporting Station
Clear Clear  
Wind Chill: 29°   Ceiling: Unl
Heat Index: 29°   Visibility: 10mi
Dew Point: 16°   Wind: 13mph
Humidity: 45%   Direction: 190°S
Pressure: 30.04"   Gusts: NA
Location:  34.61°N, 97.82°W
Report Text: KDUC 242035Z AUTO 19011KT 10SM CLR 29/16 A3004 RMK AO2
Loading
Personal Weather Stations






























Interactive Weather Map
Tropical Storm Tracking
New forecast layout! Learn more

10-Day Weather Forecast

Advertisements
Track Severe Weather on mobile